Time;durP1;ratioP1;P1;durP2;ratioP2;P2;SDS_P1;SDS_P2;PMS_P1;PMS_P2;Temp;Humidity;BMP_temperature;BMP_pressure;BME280_temperature;BME280_humidity;BME280_pressure;Samples;Min_cycle;Max_cycle;Signal;HPM_P1;HPM_P2
2021/03/23 00:02:04;;;;;;;6.40;2.80;;;;;;;;;;5118749;28;20236;-80
2021/03/23 00:04:31;;;;;;;3.83;2.40;;;;;;;;;;5118985;28;20227;-79
2021/03/23 00:06:58;;;;;;;5.20;3.23;;;;;;;;;;5119985;28;20228;-80
2021/03/23 00:09:25;;;;;;;4.53;2.80;;;;;;;;;;5114667;28;20228;-79
2021/03/23 00:11:52;;;;;;;6.07;3.03;;;;;;;;;;5111815;28;20193;-79
2021/03/23 00:14:20;;;;;;;8.17;3.27;;;;;;;;;;5119310;28;20296;-79
2021/03/23 00:16:47;;;;;;;5.70;3.17;;;;;;;;;;5109311;28;20225;-79
2021/03/23 00:19:15;;;;;;;7.73;3.27;;;;;;;;;;5103290;28;20246;-78
2021/03/23 00:21:42;;;;;;;4.80;3.10;;;;;;;;;;5119316;28;20301;-79
2021/03/23 00:24:10;;;;;;;9.63;3.60;;;;;;;;;;5113836;28;20201;-78
2021/03/23 00:26:37;;;;;;;3.90;2.60;;;;;;;;;;5099393;28;20296;-78
2021/03/23 00:29:04;;;;;;;6.93;3.60;;;;;;;;;;5111954;28;20232;-80
2021/03/23 00:31:33;;;;;;;4.87;2.87;;;;;;;;;;5120010;28;20672;-76
2021/03/23 00:34:03;;;;;;;4.30;2.87;;;;;;;;;;5118767;28;20212;-80
2021/03/23 00:36:33;;;;;;;8.73;3.03;;;;;;;;;;5099455;28;20240;-77
2021/03/23 00:39:00;;;;;;;7.77;3.27;;;;;;;;;;5105194;28;20204;-77
2021/03/23 00:41:31;;;;;;;8.63;3.20;;;;;;;;;;5118460;28;20201;-78
2021/03/23 00:43:58;;;;;;;5.47;3.10;;;;;;;;;;5112065;28;20236;-78
2021/03/23 00:46:25;;;;;;;7.50;2.80;;;;;;;;;;5108365;28;20312;-78
2021/03/23 00:48:53;;;;;;;6.77;3.10;;;;;;;;;;5119473;28;20208;-78
2021/03/23 00:51:20;;;;;;;10.13;3.17;;;;;;;;;;5117720;28;20232;-78
2021/03/23 00:53:48;;;;;;;6.37;3.00;;;;;;;;;;5103167;28;20254;-76
2021/03/23 00:56:15;;;;;;;6.43;3.10;;;;;;;;;;5110844;28;20255;-77
2021/03/23 00:58:41;;;;;;;5.93;3.03;;;;;;;;;;5119711;28;20239;-77
2021/03/23 01:01:08;;;;;;;5.17;3.03;;;;;;;;;;5116825;28;20291;-77
2021/03/23 01:03:36;;;;;;;7.10;3.57;;;;;;;;;;5119300;28;20287;-79
2021/03/23 01:06:04;;;;;;;4.70;2.87;;;;;;;;;;5117870;28;20267;-79
2021/03/23 01:08:31;;;;;;;7.67;2.83;;;;;;;;;;5119187;28;20679;-77
2021/03/23 01:10:58;;;;;;;4.50;3.00;;;;;;;;;;5117480;28;20247;-78
2021/03/23 01:13:25;;;;;;;7.10;2.80;;;;;;;;;;5116909;28;20201;-76
2021/03/23 01:15:53;;;;;;;11.40;3.33;;;;;;;;;;5119120;28;20216;-77
2021/03/23 01:18:20;;;;;;;7.73;3.20;;;;;;;;;;5117522;28;20617;-77
2021/03/23 01:20:47;;;;;;;5.97;3.30;;;;;;;;;;5118663;28;20706;-77
2021/03/23 01:23:15;;;;;;;5.73;2.70;;;;;;;;;;5117392;28;20276;-78
2021/03/23 01:25:42;;;;;;;4.93;3.03;;;;;;;;;;5118774;28;20288;-77
2021/03/23 01:28:09;;;;;;;5.57;2.90;;;;;;;;;;5117881;28;20263;-77
2021/03/23 01:30:36;;;;;;;10.70;3.00;;;;;;;;;;5119019;28;20209;-79
2021/03/23 01:33:03;;;;;;;5.03;2.70;;;;;;;;;;5109776;28;20930;-80
2021/03/23 01:35:31;;;;;;;4.90;2.60;;;;;;;;;;5114724;28;20225;-77
2021/03/23 01:37:58;;;;;;;3.50;2.77;;;;;;;;;;5100094;28;20312;-77
2021/03/23 01:40:27;;;;;;;3.17;2.60;;;;;;;;;;5106063;28;20285;-77
2021/03/23 01:42:55;;;;;;;4.57;2.87;;;;;;;;;;5100450;28;20202;-77
2021/03/23 01:45:28;;;;;;;6.33;2.50;;;;;;;;;;5099540;28;20593;-78
2021/03/23 01:47:56;;;;;;;4.63;3.17;;;;;;;;;;5117076;28;20208;-77
2021/03/23 01:50:24;;;;;;;6.80;3.23;;;;;;;;;;5108224;28;20546;-77
2021/03/23 01:52:53;;;;;;;6.43;2.80;;;;;;;;;;5115433;28;20244;-77
2021/03/23 01:55:20;;;;;;;7.40;3.10;;;;;;;;;;5118529;28;20260;-77
2021/03/23 01:57:49;;;;;;;5.07;3.13;;;;;;;;;;5116688;28;20225;-76
2021/03/23 02:00:17;;;;;;;5.17;2.70;;;;;;;;;;5118361;28;20232;-78
2021/03/23 02:02:44;;;;;;;7.03;3.20;;;;;;;;;;5115847;28;20235;-76
2021/03/23 02:05:21;;;;;;;6.03;2.37;;;;;;;;;;5117593;28;20229;-78
2021/03/23 02:07:48;;;;;;;5.47;2.83;;;;;;;;;;5117483;28;20631;-77
2021/03/23 02:10:15;;;;;;;5.83;3.10;;;;;;;;;;5112636;28;20243;-77
2021/03/23 02:12:43;;;;;;;6.10;3.00;;;;;;;;;;5117449;28;20224;-77
2021/03/23 02:15:12;;;;;;;4.80;2.67;;;;;;;;;;5118379;28;20311;-77
2021/03/23 02:17:39;;;;;;;5.90;3.50;;;;;;;;;;5116816;28;20232;-77
2021/03/23 02:20:10;;;;;;;4.20;2.80;;;;;;;;;;5121433;28;20196;-78
2021/03/23 02:22:39;;;;;;;5.17;2.77;;;;;;;;;;5121804;28;20200;-77
2021/03/23 02:25:08;;;;;;;7.60;3.40;;;;;;;;;;5109723;28;20248;-79
2021/03/23 02:27:35;;;;;;;5.97;3.03;;;;;;;;;;5101559;28;20261;-78
2021/03/23 02:30:03;;;;;;;6.03;2.97;;;;;;;;;;5120752;28;20761;-79
2021/03/23 02:32:30;;;;;;;6.50;3.07;;;;;;;;;;5115340;27;20304;-80
2021/03/23 02:34:58;;;;;;;5.27;3.10;;;;;;;;;;5119751;28;20586;-79
2021/03/23 02:37:25;;;;;;;5.93;3.17;;;;;;;;;;5103526;28;20224;-78
2021/03/23 02:39:53;;;;;;;3.70;3.20;;;;;;;;;;5102534;28;20288;-80
2021/03/23 02:42:20;;;;;;;6.53;3.30;;;;;;;;;;5109259;27;20297;-80
2021/03/23 02:44:48;;;;;;;6.93;2.93;;;;;;;;;;5135762;27;20622;-79
2021/03/23 02:47:16;;;;;;;4.07;2.73;;;;;;;;;;5123029;27;20246;-80
2021/03/23 02:49:43;;;;;;;5.97;3.20;;;;;;;;;;5121751;27;20204;-80
2021/03/23 02:52:11;;;;;;;5.40;2.90;;;;;;;;;;5126134;27;20232;-80
2021/03/23 02:54:38;;;;;;;4.93;2.87;;;;;;;;;;5129046;27;20216;-80
2021/03/23 02:57:07;;;;;;;8.40;3.23;;;;;;;;;;5124503;27;20200;-80
2021/03/23 02:59:34;;;;;;;5.83;3.20;;;;;;;;;;5123579;27;20232;-80
2021/03/23 03:02:03;;;;;;;8.13;3.60;;;;;;;;;;5120947;27;20228;-80
2021/03/23 03:04:31;;;;;;;8.40;3.50;;;;;;;;;;5137084;27;20223;-79
2021/03/23 03:06:59;;;;;;;6.03;2.47;;;;;;;;;;5135197;27;20224;-77
2021/03/23 03:09:27;;;;;;;5.83;3.40;;;;;;;;;;5114465;27;20205;-80
2021/03/23 03:11:54;;;;;;;5.47;3.20;;;;;;;;;;5120702;28;20221;-79
2021/03/23 03:14:22;;;;;;;4.90;2.90;;;;;;;;;;5116272;28;20286;-79
2021/03/23 03:16:49;;;;;;;7.00;3.30;;;;;;;;;;5101147;28;20244;-79
2021/03/23 03:19:16;;;;;;;4.80;2.97;;;;;;;;;;5119976;28;20204;-80
2021/03/23 03:21:43;;;;;;;6.10;3.80;;;;;;;;;;5118901;28;20281;-81
2021/03/23 03:24:10;;;;;;;8.43;3.30;;;;;;;;;;5117368;28;20296;-80
2021/03/23 03:26:37;;;;;;;5.40;2.63;;;;;;;;;;5101622;28;20230;-80
2021/03/23 03:29:04;;;;;;;4.13;2.63;;;;;;;;;;5108584;28;20276;-79
2021/03/23 03:31:32;;;;;;;9.47;3.70;;;;;;;;;;5100791;28;20237;-79
2021/03/23 03:34:01;;;;;;;5.03;3.03;;;;;;;;;;5100502;28;20287;-80
2021/03/23 03:36:29;;;;;;;7.60;3.83;;;;;;;;;;5108521;28;20193;-79
2021/03/23 03:38:56;;;;;;;8.60;3.80;;;;;;;;;;5120067;28;20659;-80
2021/03/23 03:41:23;;;;;;;6.17;3.30;;;;;;;;;;5120965;27;20219;-78
2021/03/23 03:43:51;;;;;;;7.20;3.70;;;;;;;;;;5119324;28;20196;-79
2021/03/23 03:46:18;;;;;;;6.57;3.33;;;;;;;;;;5120595;28;20233;-80
2021/03/23 03:48:47;;;;;;;6.70;3.40;;;;;;;;;;5104628;28;20455;-78
2021/03/23 03:51:14;;;;;;;6.83;3.33;;;;;;;;;;5102217;28;20491;-78
2021/03/23 03:53:41;;;;;;;6.50;3.13;;;;;;;;;;5116924;28;20455;-80
2021/03/23 03:56:08;;;;;;;5.27;3.40;;;;;;;;;;5106663;28;20832;-79
2021/03/23 03:58:35;;;;;;;7.93;3.50;;;;;;;;;;5104231;28;20512;-80
2021/03/23 04:01:02;;;;;;;6.50;4.10;;;;;;;;;;5119318;28;20524;-80
2021/03/23 04:03:30;;;;;;;5.90;3.77;;;;;;;;;;5118252;28;20534;-81
2021/03/23 04:05:58;;;;;;;7.60;3.77;;;;;;;;;;5118440;28;20857;-81
2021/03/23 04:08:26;;;;;;;8.67;4.17;;;;;;;;;;5120600;28;20442;-79
2021/03/23 04:10:55;;;;;;;8.07;4.37;;;;;;;;;;5118878;28;20455;-80
2021/03/23 04:13:22;;;;;;;5.77;3.53;;;;;;;;;;5112844;28;20481;-81
2021/03/23 04:15:50;;;;;;;11.60;3.50;;;;;;;;;;5119487;28;20506;-81
2021/03/23 04:18:18;;;;;;;5.10;3.67;;;;;;;;;;5119663;28;20487;-81
2021/03/23 04:20:46;;;;;;;8.03;3.80;;;;;;;;;;5117478;28;20474;-80
2021/03/23 04:23:20;;;;;;;5.80;3.80;;;;;;;;;;5115939;28;20478;-81
2021/03/23 04:25:48;;;;;;;7.03;3.73;;;;;;;;;;5119073;28;21031;-80
2021/03/23 04:28:15;;;;;;;11.80;4.43;;;;;;;;;;5108476;28;20993;-81
2021/03/23 04:30:42;;;;;;;11.03;4.30;;;;;;;;;;5099383;28;20530;-81
2021/03/23 04:33:09;;;;;;;6.90;3.37;;;;;;;;;;5113852;28;20504;-81
2021/03/23 04:35:40;;;;;;;7.77;4.00;;;;;;;;;;5114845;28;20516;-81
2021/03/23 04:38:07;;;;;;;12.57;4.30;;;;;;;;;;5110160;28;20629;-80
2021/03/23 04:40:35;;;;;;;5.80;3.70;;;;;;;;;;5119340;28;20463;-79
2021/03/23 04:43:03;;;;;;;7.07;3.90;;;;;;;;;;5118762;28;20571;-81
2021/03/23 04:45:30;;;;;;;8.33;4.50;;;;;;;;;;5119467;28;20490;-80
2021/03/23 04:47:57;;;;;;;8.93;4.37;;;;;;;;;;5116081;28;20514;-79
2021/03/23 04:50:24;;;;;;;7.97;4.33;;;;;;;;;;5118421;28;20208;-79
2021/03/23 04:52:51;;;;;;;8.53;4.00;;;;;;;;;;5117780;28;20542;-80
2021/03/23 04:55:18;;;;;;;6.70;4.10;;;;;;;;;;5119376;28;20833;-80
2021/03/23 04:57:46;;;;;;;7.83;4.03;;;;;;;;;;5117829;28;20962;-80
2021/03/23 05:00:14;;;;;;;5.93;3.60;;;;;;;;;;5099267;28;20237;-80
2021/03/23 05:02:42;;;;;;;7.97;3.50;;;;;;;;;;5114767;28;20791;-80
2021/03/23 05:05:10;;;;;;;8.23;4.13;;;;;;;;;;5100566;28;20479;-80
2021/03/23 05:07:37;;;;;;;6.83;4.07;;;;;;;;;;5105062;28;20480;-81
2021/03/23 05:10:05;;;;;;;5.63;3.80;;;;;;;;;;5118153;28;20493;-81
2021/03/23 05:12:32;;;;;;;9.57;5.27;;;;;;;;;;5116462;28;20459;-79
2021/03/23 05:15:00;;;;;;;8.43;4.30;;;;;;;;;;5119284;28;20467;-80
2021/03/23 05:17:27;;;;;;;12.17;4.33;;;;;;;;;;5117020;28;21005;-80
2021/03/23 05:19:54;;;;;;;11.87;4.80;;;;;;;;;;5115347;28;20450;-81
2021/03/23 05:22:21;;;;;;;7.63;4.13;;;;;;;;;;5119139;28;20464;-79
2021/03/23 05:24:48;;;;;;;13.10;4.13;;;;;;;;;;5108415;28;20727;-80
2021/03/23 05:27:15;;;;;;;6.80;4.03;;;;;;;;;;5097962;28;20515;-79
2021/03/23 05:29:43;;;;;;;6.17;4.27;;;;;;;;;;5116296;28;20478;-81
2021/03/23 05:32:11;;;;;;;9.67;4.47;;;;;;;;;;5114573;28;20900;-80
2021/03/23 05:34:38;;;;;;;12.93;5.07;;;;;;;;;;5112877;28;20478;-79
2021/03/23 05:37:05;;;;;;;10.13;4.37;;;;;;;;;;5101524;28;20527;-80
2021/03/23 05:39:32;;;;;;;8.93;4.53;;;;;;;;;;5100662;28;20526;-79
2021/03/23 05:42:02;;;;;;;8.13;4.40;;;;;;;;;;5118333;28;20530;-79
2021/03/23 05:44:44;;;;;;;10.87;4.40;;;;;;;;;;5117501;28;20498;-79
2021/03/23 05:47:12;;;;;;;8.17;4.37;;;;;;;;;;5109721;27;20891;-80
2021/03/23 05:49:41;;;;;;;7.53;3.93;;;;;;;;;;5101648;28;20447;-79
2021/03/23 05:52:14;;;;;;;10.07;4.87;;;;;;;;;;5112177;28;20483;-80
2021/03/23 05:54:46;;;;;;;9.13;4.37;;;;;;;;;;5106920;28;20506;-80
2021/03/23 05:57:16;;;;;;;8.03;3.93;;;;;;;;;;5110509;28;20543;-79
2021/03/23 05:59:46;;;;;;;10.50;4.13;;;;;;;;;;5104755;28;20459;-80
2021/03/23 06:02:18;;;;;;;7.80;4.30;;;;;;;;;;5116448;28;20486;-80
2021/03/23 06:04:48;;;;;;;10.13;4.67;;;;;;;;;;5108354;28;20494;-80
2021/03/23 06:07:16;;;;;;;10.23;4.73;;;;;;;;;;5116210;28;20508;-81
2021/03/23 06:09:44;;;;;;;8.47;4.63;;;;;;;;;;5099164;28;20516;-80
2021/03/23 06:12:18;;;;;;;8.70;4.77;;;;;;;;;;5105581;28;20497;-80
2021/03/23 06:14:47;;;;;;;8.00;4.17;;;;;;;;;;5117348;28;20474;-80
2021/03/23 06:17:19;;;;;;;7.30;4.33;;;;;;;;;;5116566;28;20542;-81
2021/03/23 06:19:53;;;;;;;12.50;4.40;;;;;;;;;;5105488;28;20894;-81
2021/03/23 06:22:31;;;;;;;7.47;4.50;;;;;;;;;;5115503;28;20486;-81
2021/03/23 06:25:01;;;;;;;10.47;4.93;;;;;;;;;;5115999;28;20549;-82
2021/03/23 06:27:31;;;;;;;9.83;4.73;;;;;;;;;;5115962;28;20482;-75
2021/03/23 06:30:06;;;;;;;10.37;4.63;;;;;;;;;;5113577;28;20565;-76
2021/03/23 06:32:38;;;;;;;10.37;4.97;;;;;;;;;;5117127;28;20458;-75
2021/03/23 06:35:06;;;;;;;8.63;4.93;;;;;;;;;;5117155;28;20458;-75
2021/03/23 06:37:35;;;;;;;13.40;6.47;;;;;;;;;;5108179;28;20457;-75
2021/03/23 06:40:09;;;;;;;12.03;5.47;;;;;;;;;;5115296;28;20454;-74
2021/03/23 06:42:38;;;;;;;8.67;5.30;;;;;;;;;;5107753;28;20524;-74
2021/03/23 06:45:17;;;;;;;9.97;4.97;;;;;;;;;;5117920;28;20546;-81
2021/03/23 06:47:45;;;;;;;10.07;5.30;;;;;;;;;;5098133;28;20532;-80
2021/03/23 06:50:23;;;;;;;11.07;5.27;;;;;;;;;;5105742;28;20440;-80
2021/03/23 06:53:02;;;;;;;13.77;5.50;;;;;;;;;;5108939;28;20537;-79
2021/03/23 06:55:29;;;;;;;7.97;4.90;;;;;;;;;;5097338;28;20897;-79
2021/03/23 06:57:56;;;;;;;10.47;4.80;;;;;;;;;;5098786;28;22170;-79
2021/03/23 07:00:27;;;;;;;8.83;4.80;;;;;;;;;;5115735;28;20862;-80
2021/03/23 07:03:09;;;;;;;7.77;5.03;;;;;;;;;;5114444;28;20458;-80
2021/03/23 07:05:37;;;;;;;9.43;5.17;;;;;;;;;;5118156;28;20905;-79
2021/03/23 07:08:16;;;;;;;9.83;5.30;;;;;;;;;;5121365;28;20514;-79
2021/03/23 07:10:44;;;;;;;8.07;4.93;;;;;;;;;;5120887;28;20486;-79
2021/03/23 07:13:26;;;;;;;7.40;5.10;;;;;;;;;;5120451;27;20497;-78
2021/03/23 07:15:56;;;;;;;12.17;5.57;;;;;;;;;;5115783;27;20483;-76
2021/03/23 07:18:27;;;;;;;8.87;4.87;;;;;;;;;;5119139;28;20584;-78
2021/03/23 07:20:56;;;;;;;10.07;5.00;;;;;;;;;;5120661;28;20462;-77
2021/03/23 07:23:28;;;;;;;14.43;5.30;;;;;;;;;;5115049;27;20523;-77
2021/03/23 07:25:56;;;;;;;8.30;4.73;;;;;;;;;;5119727;28;20481;-77
2021/03/23 07:28:30;;;;;;;8.93;5.27;;;;;;;;;;5118340;28;20514;-77
2021/03/23 07:31:04;;;;;;;14.43;6.07;;;;;;;;;;5114092;28;20510;-77
2021/03/23 07:33:39;;;;;;;9.93;5.57;;;;;;;;;;5118045;28;21020;-76
2021/03/23 07:36:08;;;;;;;10.20;4.87;;;;;;;;;;5115391;28;20478;-77
2021/03/23 07:38:36;;;;;;;11.87;5.60;;;;;;;;;;5116205;28;20496;-77
2021/03/23 07:41:04;;;;;;;6.63;4.70;;;;;;;;;;5110684;28;20857;-77
2021/03/23 07:43:43;;;;;;;11.47;5.40;;;;;;;;;;5103296;28;20443;-78
2021/03/23 07:46:13;;;;;;;14.13;6.37;;;;;;;;;;5108321;28;20470;-77
2021/03/23 07:48:44;;;;;;;13.33;5.50;;;;;;;;;;5111786;28;20477;-77
2021/03/23 07:51:28;;;;;;;12.43;6.47;;;;;;;;;;5099412;28;20530;-77
2021/03/23 07:54:28;;;;;;;10.03;5.63;;;;;;;;;;5108295;28;20562;-75
2021/03/23 07:57:00;;;;;;;9.73;5.40;;;;;;;;;;5068726;28;20558;-77
2021/03/23 07:59:43;;;;;;;11.93;5.47;;;;;;;;;;5103028;28;20500;-77
2021/03/23 08:02:20;;;;;;;10.10;5.97;;;;;;;;;;5111263;28;20447;-77
2021/03/23 08:04:53;;;;;;;13.10;5.90;;;;;;;;;;5110348;28;20471;-76
2021/03/23 08:07:23;;;;;;;11.87;6.03;;;;;;;;;;5108571;28;20948;-79
2021/03/23 08:10:07;;;;;;;9.27;5.00;;;;;;;;;;5111013;28;20947;-75
2021/03/23 08:12:43;;;;;;;10.03;5.50;;;;;;;;;;5113241;28;20205;-75
2021/03/23 08:15:15;;;;;;;12.90;6.00;;;;;;;;;;5111078;28;20249;-75
2021/03/23 08:17:56;;;;;;;11.20;5.70;;;;;;;;;;5110080;28;20224;-78
2021/03/23 08:20:35;;;;;;;10.60;5.70;;;;;;;;;;5112217;28;20201;-78
2021/03/23 08:23:09;;;;;;;11.33;6.67;;;;;;;;;;5103896;28;20193;-74
2021/03/23 08:25:42;;;;;;;14.43;5.97;;;;;;;;;;5110577;28;20243;-77
2021/03/23 08:28:19;;;;;;;14.67;6.00;;;;;;;;;;5111991;28;20296;-78
2021/03/23 08:30:51;;;;;;;10.33;5.73;;;;;;;;;;5112469;28;20200;-78
2021/03/23 08:33:31;;;;;;;7.27;4.93;;;;;;;;;;5111491;28;20201;-79
2021/03/23 08:36:05;;;;;;;10.40;5.30;;;;;;;;;;5111328;28;20256;-78
2021/03/23 08:38:39;;;;;;;10.73;6.07;;;;;;;;;;5099394;28;20710;-79
2021/03/23 08:41:11;;;;;;;9.47;5.30;;;;;;;;;;5099697;28;20216;-81
2021/03/23 08:43:40;;;;;;;8.40;5.20;;;;;;;;;;5107989;28;20644;-78
2021/03/23 08:46:09;;;;;;;12.00;5.53;;;;;;;;;;5112097;28;20256;-77
2021/03/23 08:48:43;;;;;;;10.67;4.77;;;;;;;;;;5102661;28;20283;-78
2021/03/23 08:51:14;;;;;;;10.07;5.70;;;;;;;;;;5108131;28;20226;-79
2021/03/23 08:53:46;;;;;;;12.83;5.60;;;;;;;;;;5108304;28;20250;-78
2021/03/23 08:56:13;;;;;;;9.47;6.10;;;;;;;;;;5111692;28;20698;-77
2021/03/23 08:58:47;;;;;;;10.00;5.23;;;;;;;;;;5112767;28;20272;-79
2021/03/23 09:01:47;;;;;;;10.73;5.23;;;;;;;;;;5107734;28;20580;-79
2021/03/23 09:04:27;;;;;;;9.43;5.30;;;;;;;;;;5032243;28;20480;-77
2021/03/23 09:06:56;;;;;;;11.40;5.67;;;;;;;;;;5035701;28;21063;-78
2021/03/23 09:09:34;;;;;;;11.57;5.70;;;;;;;;;;5073257;28;20204;-78
2021/03/23 09:12:03;;;;;;;9.87;5.40;;;;;;;;;;5098263;28;20213;-78
2021/03/23 09:14:31;;;;;;;14.17;5.53;;;;;;;;;;5115537;28;20246;-78
2021/03/23 09:17:14;;;;;;;10.60;5.53;;;;;;;;;;5117654;28;20482;-77
2021/03/23 09:19:43;;;;;;;10.07;5.30;;;;;;;;;;5109636;28;20237;-77
2021/03/23 09:22:37;;;;;;;11.80;5.03;;;;;;;;;;5098163;28;20266;-78
2021/03/23 09:25:29;;;;;;;11.20;6.03;;;;;;;;;;5105592;28;20279;-79
2021/03/23 09:28:01;;;;;;;12.77;5.27;;;;;;;;;;5105162;28;21075;-80
2021/03/23 09:30:49;;;;;;;12.67;5.90;;;;;;;;;;5101813;28;20241;-80
2021/03/23 09:33:19;;;;;;;12.33;5.63;;;;;;;;;;5113915;28;20204;-78
2021/03/23 09:36:00;;;;;;;12.00;6.43;;;;;;;;;;5106947;28;20221;-79
2021/03/23 09:38:33;;;;;;;12.93;6.23;;;;;;;;;;5108335;28;20238;-79
2021/03/23 09:41:01;;;;;;;10.27;6.30;;;;;;;;;;5109313;28;20197;-79
2021/03/23 09:43:32;;;;;;;9.17;5.60;;;;;;;;;;5110194;28;20269;-78
2021/03/23 09:46:04;;;;;;;10.47;5.37;;;;;;;;;;5106772;28;20753;-78
2021/03/23 09:48:46;;;;;;;10.33;6.03;;;;;;;;;;5108161;28;20227;-78
2021/03/23 09:51:15;;;;;;;9.53;5.40;;;;;;;;;;5102994;28;20269;-79
2021/03/23 09:53:43;;;;;;;8.77;5.37;;;;;;;;;;5112221;28;20193;-79
2021/03/23 09:56:12;;;;;;;9.23;4.83;;;;;;;;;;5108478;28;20269;-80
2021/03/23 09:58:41;;;;;;;9.87;4.90;;;;;;;;;;5110027;28;20199;-79
2021/03/23 10:01:12;;;;;;;10.50;5.33;;;;;;;;;;5115181;28;20208;-78
2021/03/23 10:03:41;;;;;;;10.63;5.27;;;;;;;;;;5111057;28;20212;-80
2021/03/23 10:06:10;;;;;;;9.90;5.27;;;;;;;;;;5112827;28;20626;-79
2021/03/23 10:08:37;;;;;;;9.40;5.23;;;;;;;;;;5113888;28;20263;-78
2021/03/23 10:11:14;;;;;;;7.83;4.93;;;;;;;;;;5110292;28;20296;-79
2021/03/23 10:13:45;;;;;;;10.07;4.77;;;;;;;;;;5108542;28;20284;-77
2021/03/23 10:16:20;;;;;;;9.83;5.27;;;;;;;;;;5106086;28;20656;-77
2021/03/23 10:18:48;;;;;;;8.73;5.53;;;;;;;;;;5108278;28;20211;-79
2021/03/23 10:21:15;;;;;;;12.13;5.30;;;;;;;;;;5108477;28;20225;-77
2021/03/23 10:23:43;;;;;;;9.27;5.03;;;;;;;;;;5106054;28;20236;-78
2021/03/23 10:26:10;;;;;;;8.03;5.07;;;;;;;;;;5108861;28;20307;-77
2021/03/23 10:28:39;;;;;;;9.17;5.67;;;;;;;;;;5107478;28;20233;-77
2021/03/23 10:31:08;;;;;;;10.17;4.87;;;;;;;;;;5113540;28;20285;-78
2021/03/23 10:33:37;;;;;;;11.63;4.90;;;;;;;;;;5104802;27;20304;-79
2021/03/23 10:36:06;;;;;;;9.37;5.20;;;;;;;;;;5109981;28;20233;-79
2021/03/23 10:38:37;;;;;;;11.60;5.20;;;;;;;;;;5107507;28;20204;-79
2021/03/23 10:41:24;;;;;;;9.23;3.80;;;;;;;;;;5113280;28;21485;-79
2021/03/23 10:43:52;;;;;;;11.33;5.00;;;;;;;;;;5112326;28;20201;-77
2021/03/23 10:46:28;;;;;;;9.33;4.30;;;;;;;;;;5115976;28;20224;-77
2021/03/23 10:49:10;;;;;;;8.27;4.40;;;;;;;;;;5113574;28;20242;-79
2021/03/23 10:51:39;;;;;;;9.33;4.57;;;;;;;;;;5111106;28;20253;-79
2021/03/23 10:54:16;;;;;;;8.50;4.43;;;;;;;;;;5111059;28;20223;-78
2021/03/23 10:56:44;;;;;;;6.20;3.47;;;;;;;;;;5113276;28;20197;-78
2021/03/23 10:59:12;;;;;;;8.13;4.10;;;;;;;;;;5115386;28;20292;-77
2021/03/23 11:01:56;;;;;;;8.83;4.73;;;;;;;;;;5114753;28;20573;-79
2021/03/23 11:04:24;;;;;;;9.00;4.80;;;;;;;;;;5109323;28;20285;-77
2021/03/23 11:06:51;;;;;;;13.60;4.83;;;;;;;;;;5113785;28;20288;-79
2021/03/23 11:09:19;;;;;;;8.17;4.60;;;;;;;;;;5115418;28;20636;-77
2021/03/23 11:11:57;;;;;;;7.60;4.60;;;;;;;;;;5110859;28;20204;-75
2021/03/23 11:20:26;;;;;;;7.47;4.47;;;;;;;;;;5064115;28;20229;-75
2021/03/23 11:29:14;;;;;;;8.57;4.20;;;;;;;;;;5021134;28;20262;-77
2021/03/23 11:31:41;;;;;;;9.27;4.30;;;;;;;;;;5057815;28;20249;-76
2021/03/23 11:34:09;;;;;;;6.37;3.53;;;;;;;;;;5085615;28;20209;-76
2021/03/23 11:36:38;;;;;;;7.40;3.80;;;;;;;;;;5108555;28;20209;-77
2021/03/23 11:39:08;;;;;;;5.97;3.53;;;;;;;;;;5111726;28;20291;-73
2021/03/23 11:41:37;;;;;;;7.53;4.27;;;;;;;;;;5113485;28;20222;-72
2021/03/23 11:44:06;;;;;;;7.70;4.27;;;;;;;;;;5111142;28;20197;-73
2021/03/23 11:46:37;;;;;;;5.90;3.67;;;;;;;;;;5110832;28;20235;-72
2021/03/23 11:49:08;;;;;;;10.70;4.60;;;;;;;;;;5109178;28;20225;-73
2021/03/23 11:51:38;;;;;;;10.53;4.53;;;;;;;;;;5101435;28;20205;-75
2021/03/23 11:54:05;;;;;;;7.53;4.50;;;;;;;;;;5119225;28;20284;-76
2021/03/23 11:56:32;;;;;;;5.63;3.77;;;;;;;;;;5120420;28;20284;-76
2021/03/23 11:59:01;;;;;;;9.17;4.43;;;;;;;;;;5115295;28;20193;-77
2021/03/23 12:01:28;;;;;;;9.53;4.30;;;;;;;;;;5111094;28;20202;-75
2021/03/23 12:03:56;;;;;;;6.33;4.27;;;;;;;;;;5114932;27;20236;-76
2021/03/23 12:06:29;;;;;;;6.50;4.50;;;;;;;;;;5111487;28;20247;-76
2021/03/23 12:08:59;;;;;;;8.70;4.00;;;;;;;;;;5107553;28;20273;-77
2021/03/23 12:11:31;;;;;;;9.47;4.50;;;;;;;;;;5120094;28;20208;-76
2021/03/23 12:14:09;;;;;;;6.97;3.70;;;;;;;;;;5119911;28;20664;-77
2021/03/23 12:16:40;;;;;;;8.90;4.20;;;;;;;;;;5117542;28;20197;-75
2021/03/23 12:19:21;;;;;;;6.97;3.90;;;;;;;;;;5109105;28;20197;-75
2021/03/23 12:21:49;;;;;;;5.30;3.77;;;;;;;;;;5112996;28;20324;-74
2021/03/23 12:24:17;;;;;;;6.33;3.67;;;;;;;;;;5116795;28;20711;-76
2021/03/23 12:26:45;;;;;;;6.20;3.40;;;;;;;;;;5102462;28;20232;-76
2021/03/23 12:29:12;;;;;;;7.43;3.80;;;;;;;;;;5099196;28;20292;-76
2021/03/23 12:31:39;;;;;;;6.57;4.07;;;;;;;;;;5099204;28;20212;-77
2021/03/23 12:34:06;;;;;;;7.30;3.67;;;;;;;;;;5111712;28;20209;-78
2021/03/23 12:36:33;;;;;;;8.27;3.40;;;;;;;;;;5101264;28;20223;-76
2021/03/23 12:39:02;;;;;;;6.07;3.90;;;;;;;;;;5099458;28;20198;-76
2021/03/23 12:41:32;;;;;;;7.63;4.27;;;;;;;;;;5099125;28;20244;-76
2021/03/23 12:43:59;;;;;;;10.70;3.50;;;;;;;;;;5098870;28;20289;-76
2021/03/23 12:46:27;;;;;;;6.73;3.10;;;;;;;;;;5106444;28;20212;-78
2021/03/23 12:48:55;;;;;;;5.03;3.07;;;;;;;;;;5109783;28;20630;-76
2021/03/23 12:51:23;;;;;;;6.70;3.40;;;;;;;;;;5113268;28;20698;-77
2021/03/23 12:53:51;;;;;;;7.03;3.03;;;;;;;;;;5119049;28;20283;-77
2021/03/23 12:56:20;;;;;;;3.67;2.80;;;;;;;;;;5119420;28;20252;-77
2021/03/23 12:58:49;;;;;;;3.93;2.70;;;;;;;;;;5119512;28;20208;-77
2021/03/23 13:01:17;;;;;;;6.70;3.43;;;;;;;;;;5119489;28;20220;-78
2021/03/23 13:03:45;;;;;;;4.47;2.93;;;;;;;;;;5119397;28;20235;-79
2021/03/23 13:06:13;;;;;;;4.53;2.83;;;;;;;;;;5118622;27;20711;-78
2021/03/23 13:08:41;;;;;;;4.47;2.73;;;;;;;;;;5112517;28;20217;-78
2021/03/23 13:11:12;;;;;;;6.40;3.50;;;;;;;;;;5099832;28;20210;-78
2021/03/23 13:13:43;;;;;;;3.57;2.57;;;;;;;;;;5098500;28;20260;-78
2021/03/23 13:16:12;;;;;;;3.50;2.90;;;;;;;;;;5098564;28;20229;-77
2021/03/23 13:18:40;;;;;;;4.10;3.33;;;;;;;;;;5098393;28;20216;-77
2021/03/23 13:21:08;;;;;;;4.43;3.27;;;;;;;;;;5117502;28;20207;-78
2021/03/23 13:23:38;;;;;;;5.17;3.10;;;;;;;;;;5105133;28;20714;-78
2021/03/23 13:26:05;;;;;;;5.03;3.23;;;;;;;;;;5111131;27;20609;-77
2021/03/23 13:28:40;;;;;;;7.17;3.10;;;;;;;;;;5098315;28;20272;-77
2021/03/23 13:31:07;;;;;;;4.23;2.80;;;;;;;;;;5098583;28;20240;-77
2021/03/23 13:33:37;;;;;;;5.07;3.03;;;;;;;;;;5098344;28;20205;-77
2021/03/23 13:36:06;;;;;;;8.70;3.70;;;;;;;;;;5110801;28;20761;-77
2021/03/23 13:38:35;;;;;;;7.73;3.10;;;;;;;;;;5118858;28;20197;-79
2021/03/23 13:41:02;;;;;;;7.47;3.20;;;;;;;;;;5118191;28;20623;-76
2021/03/23 13:43:44;;;;;;;5.13;2.87;;;;;;;;;;5103390;28;20561;-77
2021/03/23 13:46:24;;;;;;;5.83;2.80;;;;;;;;;;5106549;28;20711;-76
2021/03/23 13:49:02;;;;;;;8.60;3.60;;;;;;;;;;5106604;28;20225;-78
2021/03/23 13:51:30;;;;;;;7.03;3.27;;;;;;;;;;5109126;28;20201;-76
2021/03/23 13:53:57;;;;;;;5.23;3.40;;;;;;;;;;5111597;28;20205;-80
2021/03/23 13:56:26;;;;;;;5.80;3.17;;;;;;;;;;5101651;28;20212;-78
2021/03/23 13:58:53;;;;;;;4.03;2.97;;;;;;;;;;5108264;28;20208;-76
2021/03/23 14:01:20;;;;;;;6.40;3.53;;;;;;;;;;5118165;28;20258;-76
2021/03/23 14:03:48;;;;;;;5.63;3.80;;;;;;;;;;5118047;28;20213;-77
2021/03/23 14:06:20;;;;;;;4.73;2.70;;;;;;;;;;5117966;28;20281;-77
2021/03/23 14:08:48;;;;;;;3.80;2.83;;;;;;;;;;5118364;28;20228;-77
2021/03/23 14:11:16;;;;;;;5.40;2.40;;;;;;;;;;5109036;27;20657;-78
2021/03/23 14:13:43;;;;;;;6.00;2.60;;;;;;;;;;5110109;28;20201;-79
2021/03/23 14:16:10;;;;;;;6.03;2.90;;;;;;;;;;5112430;28;20225;-80
2021/03/23 14:18:37;;;;;;;6.20;2.80;;;;;;;;;;5097847;28;20235;-76
2021/03/23 14:21:06;;;;;;;3.73;2.40;;;;;;;;;;5116518;28;20207;-77
2021/03/23 14:23:36;;;;;;;7.80;2.83;;;;;;;;;;5118069;28;20291;-77
2021/03/23 14:26:04;;;;;;;5.43;2.43;;;;;;;;;;5097970;28;20335;-78
2021/03/23 14:28:32;;;;;;;6.43;3.10;;;;;;;;;;5097503;28;20240;-79
2021/03/23 14:31:01;;;;;;;4.53;2.87;;;;;;;;;;5104609;28;20209;-77
2021/03/23 14:33:28;;;;;;;4.77;2.70;;;;;;;;;;5103700;28;20217;-77
2021/03/23 14:35:55;;;;;;;4.13;2.53;;;;;;;;;;5105581;28;20308;-77
2021/03/23 14:38:24;;;;;;;8.87;2.70;;;;;;;;;;5097167;28;20201;-75
2021/03/23 14:40:53;;;;;;;4.73;2.87;;;;;;;;;;5097609;28;20237;-77
2021/03/23 14:43:20;;;;;;;4.57;2.70;;;;;;;;;;5097448;28;20259;-79
2021/03/23 14:45:47;;;;;;;6.10;3.00;;;;;;;;;;5102616;28;20229;-75
2021/03/23 14:48:15;;;;;;;2.90;2.30;;;;;;;;;;5102094;28;20312;-76
2021/03/23 14:50:43;;;;;;;4.13;2.63;;;;;;;;;;5116191;28;20207;-75
2021/03/23 14:53:16;;;;;;;2.77;2.00;;;;;;;;;;5101748;28;20213;-74
2021/03/23 14:55:43;;;;;;;4.40;2.80;;;;;;;;;;5097137;28;20252;-78
2021/03/23 14:58:13;;;;;;;6.80;2.73;;;;;;;;;;5096907;28;20642;-75
2021/03/23 15:00:41;;;;;;;6.50;2.80;;;;;;;;;;5106444;28;20205;-74
2021/03/23 15:03:10;;;;;;;7.70;2.47;;;;;;;;;;5107959;28;20260;-73
2021/03/23 15:05:37;;;;;;;3.70;2.60;;;;;;;;;;5131898;27;20282;-74
2021/03/23 15:08:06;;;;;;;5.70;2.50;;;;;;;;;;5129978;27;20246;-74
2021/03/23 15:10:34;;;;;;;6.37;2.10;;;;;;;;;;5118127;28;20257;-74